sensor_id;sensor_type;location;lat;lon;timestamp;P1;durP1;ratioP1;P2;durP2;ratioP2
82372;SDS011;72000;42.828;23.382;2024-02-21T00:02:07;14.60;;;6.53;;
82372;SDS011;72000;42.828;23.382;2024-02-21T00:04:32;15.05;;;6.82;;
82372;SDS011;72000;42.828;23.382;2024-02-21T00:06:58;14.35;;;6.35;;
82372;SDS011;72000;42.828;23.382;2024-02-21T00:09:24;13.13;;;6.07;;
82372;SDS011;72000;42.828;23.382;2024-02-21T00:11:49;13.95;;;6.00;;
82372;SDS011;72000;42.828;23.382;2024-02-21T00:14:15;13.35;;;5.72;;
82372;SDS011;72000;42.828;23.382;2024-02-21T00:16:41;13.20;;;6.10;;
82372;SDS011;72000;42.828;23.382;2024-02-21T00:19:06;12.48;;;5.80;;
82372;SDS011;72000;42.828;23.382;2024-02-21T00:21:32;13.15;;;5.70;;
82372;SDS011;72000;42.828;23.382;2024-02-21T00:23:57;12.90;;;5.80;;
82372;SDS011;72000;42.828;23.382;2024-02-21T00:26:23;14.05;;;6.28;;
82372;SDS011;72000;42.828;23.382;2024-02-21T00:28:48;14.32;;;6.15;;
82372;SDS011;72000;42.828;23.382;2024-02-21T00:31:14;14.95;;;6.25;;
82372;SDS011;72000;42.828;23.382;2024-02-21T00:33:40;12.75;;;5.95;;
82372;SDS011;72000;42.828;23.382;2024-02-21T00:36:05;11.30;;;5.50;;
82372;SDS011;72000;42.828;23.382;2024-02-21T00:38:31;13.23;;;5.93;;
82372;SDS011;72000;42.828;23.382;2024-02-21T00:40:56;14.80;;;6.40;;
82372;SDS011;72000;42.828;23.382;2024-02-21T00:43:22;14.45;;;6.20;;
82372;SDS011;72000;42.828;23.382;2024-02-21T00:45:49;13.23;;;5.90;;
82372;SDS011;72000;42.828;23.382;2024-02-21T00:48:15;13.45;;;6.07;;
82372;SDS011;72000;42.828;23.382;2024-02-21T00:50:40;13.20;;;6.40;;
82372;SDS011;72000;42.828;23.382;2024-02-21T00:53:06;14.20;;;6.78;;
82372;SDS011;72000;42.828;23.382;2024-02-21T00:55:31;14.15;;;6.28;;
82372;SDS011;72000;42.828;23.382;2024-02-21T00:57:57;14.88;;;6.80;;
82372;SDS011;72000;42.828;23.382;2024-02-21T01:00:22;13.95;;;5.85;;
82372;SDS011;72000;42.828;23.382;2024-02-21T01:02:48;15.93;;;6.47;;
82372;SDS011;72000;42.828;23.382;2024-02-21T01:05:13;13.43;;;6.03;;
82372;SDS011;72000;42.828;23.382;2024-02-21T01:07:39;14.80;;;6.07;;
82372;SDS011;72000;42.828;23.382;2024-02-21T01:10:05;13.75;;;6.10;;
82372;SDS011;72000;42.828;23.382;2024-02-21T01:12:31;15.93;;;6.15;;
82372;SDS011;72000;42.828;23.382;2024-02-21T01:14:57;13.02;;;5.72;;
82372;SDS011;72000;42.828;23.382;2024-02-21T01:17:22;15.20;;;6.45;;
82372;SDS011;72000;42.828;23.382;2024-02-21T01:19:47;13.65;;;6.47;;
82372;SDS011;72000;42.828;23.382;2024-02-21T01:22:13;12.57;;;6.10;;
82372;SDS011;72000;42.828;23.382;2024-02-21T01:27:05;14.67;;;6.13;;
82372;SDS011;72000;42.828;23.382;2024-02-21T01:29:30;13.40;;;5.63;;
82372;SDS011;72000;42.828;23.382;2024-02-21T01:31:56;13.88;;;6.10;;
82372;SDS011;72000;42.828;23.382;2024-02-21T01:34:22;13.32;;;6.40;;
82372;SDS011;72000;42.828;23.382;2024-02-21T01:36:47;14.15;;;6.35;;
82372;SDS011;72000;42.828;23.382;2024-02-21T01:39:13;13.38;;;5.57;;
82372;SDS011;72000;42.828;23.382;2024-02-21T01:41:38;12.85;;;5.80;;
82372;SDS011;72000;42.828;23.382;2024-02-21T01:44:04;14.30;;;5.75;;
82372;SDS011;72000;42.828;23.382;2024-02-21T01:46:30;13.05;;;5.63;;
82372;SDS011;72000;42.828;23.382;2024-02-21T01:48:56;13.50;;;5.60;;
82372;SDS011;72000;42.828;23.382;2024-02-21T01:51:23;13.32;;;6.18;;
82372;SDS011;72000;42.828;23.382;2024-02-21T01:53:48;11.18;;;5.20;;
82372;SDS011;72000;42.828;23.382;2024-02-21T01:56:16;11.60;;;5.05;;
82372;SDS011;72000;42.828;23.382;2024-02-21T01:58:42;12.70;;;5.95;;
82372;SDS011;72000;42.828;23.382;2024-02-21T02:01:08;12.82;;;5.47;;
82372;SDS011;72000;42.828;23.382;2024-02-21T02:03:35;11.73;;;5.28;;
82372;SDS011;72000;42.828;23.382;2024-02-21T02:06:00;11.40;;;5.25;;
82372;SDS011;72000;42.828;23.382;2024-02-21T02:08:26;11.68;;;5.30;;
82372;SDS011;72000;42.828;23.382;2024-02-21T02:10:51;10.32;;;4.40;;
82372;SDS011;72000;42.828;23.382;2024-02-21T02:13:17;10.55;;;4.82;;
82372;SDS011;72000;42.828;23.382;2024-02-21T02:15:46;11.63;;;5.10;;
82372;SDS011;72000;42.828;23.382;2024-02-21T02:18:13;12.07;;;5.10;;
82372;SDS011;72000;42.828;23.382;2024-02-21T02:20:39;10.20;;;4.47;;
82372;SDS011;72000;42.828;23.382;2024-02-21T02:23:10;12.25;;;5.18;;
82372;SDS011;72000;42.828;23.382;2024-02-21T02:25:36;11.32;;;4.85;;
82372;SDS011;72000;42.828;23.382;2024-02-21T02:28:06;11.60;;;4.97;;
82372;SDS011;72000;42.828;23.382;2024-02-21T02:30:34;10.45;;;4.90;;
82372;SDS011;72000;42.828;23.382;2024-02-21T02:33:03;10.85;;;5.00;;
82372;SDS011;72000;42.828;23.382;2024-02-21T02:35:29;11.48;;;4.80;;
82372;SDS011;72000;42.828;23.382;2024-02-21T02:37:54;9.93;;;4.57;;
82372;SDS011;72000;42.828;23.382;2024-02-21T02:40:20;10.50;;;5.00;;
82372;SDS011;72000;42.828;23.382;2024-02-21T02:42:46;10.52;;;4.75;;
82372;SDS011;72000;42.828;23.382;2024-02-21T02:45:12;11.45;;;4.80;;
82372;SDS011;72000;42.828;23.382;2024-02-21T02:47:39;9.45;;;4.35;;
82372;SDS011;72000;42.828;23.382;2024-02-21T02:50:05;10.85;;;4.47;;
82372;SDS011;72000;42.828;23.382;2024-02-21T02:54:57;9.45;;;4.38;;
82372;SDS011;72000;42.828;23.382;2024-02-21T02:57:23;11.88;;;4.53;;
82372;SDS011;72000;42.828;23.382;2024-02-21T02:59:48;11.10;;;4.80;;
82372;SDS011;72000;42.828;23.382;2024-02-21T03:02:14;9.93;;;4.68;;
82372;SDS011;72000;42.828;23.382;2024-02-21T03:04:40;8.75;;;4.45;;
82372;SDS011;72000;42.828;23.382;2024-02-21T03:07:06;12.45;;;5.60;;
82372;SDS011;72000;42.828;23.382;2024-02-21T03:09:31;12.13;;;5.53;;
82372;SDS011;72000;42.828;23.382;2024-02-21T03:11:57;13.95;;;5.95;;
82372;SDS011;72000;42.828;23.382;2024-02-21T03:14:30;14.40;;;6.97;;
82372;SDS011;72000;42.828;23.382;2024-02-21T03:16:56;14.75;;;6.38;;
82372;SDS011;72000;42.828;23.382;2024-02-21T03:19:23;15.55;;;5.95;;
82372;SDS011;72000;42.828;23.382;2024-02-21T03:21:48;13.32;;;5.50;;
82372;SDS011;72000;42.828;23.382;2024-02-21T03:24:16;11.30;;;5.85;;
82372;SDS011;72000;42.828;23.382;2024-02-21T03:26:41;15.00;;;5.90;;
82372;SDS011;72000;42.828;23.382;2024-02-21T03:29:07;13.05;;;5.68;;
82372;SDS011;72000;42.828;23.382;2024-02-21T03:33:59;13.23;;;5.68;;
82372;SDS011;72000;42.828;23.382;2024-02-21T03:36:25;11.38;;;5.53;;
82372;SDS011;72000;42.828;23.382;2024-02-21T03:38:50;12.18;;;5.40;;
82372;SDS011;72000;42.828;23.382;2024-02-21T03:41:16;13.20;;;5.60;;
82372;SDS011;72000;42.828;23.382;2024-02-21T03:43:41;14.35;;;5.63;;
82372;SDS011;72000;42.828;23.382;2024-02-21T03:46:07;11.35;;;5.07;;
82372;SDS011;72000;42.828;23.382;2024-02-21T03:48:33;10.07;;;4.80;;
82372;SDS011;72000;42.828;23.382;2024-02-21T03:50:58;9.85;;;4.00;;
82372;SDS011;72000;42.828;23.382;2024-02-21T03:53:24;9.02;;;4.00;;
82372;SDS011;72000;42.828;23.382;2024-02-21T03:55:49;10.38;;;4.57;;
82372;SDS011;72000;42.828;23.382;2024-02-21T03:58:15;8.75;;;4.18;;
82372;SDS011;72000;42.828;23.382;2024-02-21T04:00:40;8.13;;;3.67;;
82372;SDS011;72000;42.828;23.382;2024-02-21T04:03:06;9.43;;;3.60;;
82372;SDS011;72000;42.828;23.382;2024-02-21T04:05:32;8.18;;;3.53;;
82372;SDS011;72000;42.828;23.382;2024-02-21T04:07:58;8.85;;;3.10;;
82372;SDS011;72000;42.828;23.382;2024-02-21T04:10:24;6.10;;;3.00;;
82372;SDS011;72000;42.828;23.382;2024-02-21T04:12:49;7.60;;;3.40;;
82372;SDS011;72000;42.828;23.382;2024-02-21T04:15:16;7.35;;;3.53;;
82372;SDS011;72000;42.828;23.382;2024-02-21T04:17:41;7.95;;;3.42;;
82372;SDS011;72000;42.828;23.382;2024-02-21T04:20:13;8.00;;;3.10;;
82372;SDS011;72000;42.828;23.382;2024-02-21T04:22:40;9.57;;;3.92;;
82372;SDS011;72000;42.828;23.382;2024-02-21T04:25:05;8.32;;;3.45;;
82372;SDS011;72000;42.828;23.382;2024-02-21T04:27:31;8.55;;;3.60;;
82372;SDS011;72000;42.828;23.382;2024-02-21T04:29:57;7.75;;;3.50;;
82372;SDS011;72000;42.828;23.382;2024-02-21T04:32:23;10.38;;;4.80;;
82372;SDS011;72000;42.828;23.382;2024-02-21T04:34:48;9.32;;;4.82;;
82372;SDS011;72000;42.828;23.382;2024-02-21T04:37:14;9.27;;;3.88;;
82372;SDS011;72000;42.828;23.382;2024-02-21T04:39:39;9.40;;;4.03;;
82372;SDS011;72000;42.828;23.382;2024-02-21T04:42:05;9.60;;;4.15;;
82372;SDS011;72000;42.828;23.382;2024-02-21T04:44:30;9.88;;;4.18;;
82372;SDS011;72000;42.828;23.382;2024-02-21T04:46:56;8.73;;;4.10;;
82372;SDS011;72000;42.828;23.382;2024-02-21T04:49:21;8.70;;;3.85;;
82372;SDS011;72000;42.828;23.382;2024-02-21T04:51:47;8.52;;;3.70;;
82372;SDS011;72000;42.828;23.382;2024-02-21T04:54:12;8.73;;;3.60;;
82372;SDS011;72000;42.828;23.382;2024-02-21T04:56:38;7.25;;;3.33;;
82372;SDS011;72000;42.828;23.382;2024-02-21T04:59:03;7.07;;;3.17;;
82372;SDS011;72000;42.828;23.382;2024-02-21T05:01:29;8.43;;;3.47;;
82372;SDS011;72000;42.828;23.382;2024-02-21T05:03:54;7.13;;;3.28;;
82372;SDS011;72000;42.828;23.382;2024-02-21T05:06:20;6.53;;;3.15;;
82372;SDS011;72000;42.828;23.382;2024-02-21T05:08:45;6.57;;;3.17;;
82372;SDS011;72000;42.828;23.382;2024-02-21T05:11:11;9.02;;;3.70;;
82372;SDS011;72000;42.828;23.382;2024-02-21T05:13:36;7.10;;;3.08;;
82372;SDS011;72000;42.828;23.382;2024-02-21T05:16:02;10.25;;;4.50;;
82372;SDS011;72000;42.828;23.382;2024-02-21T05:18:28;25.38;;;8.73;;
82372;SDS011;72000;42.828;23.382;2024-02-21T05:20:53;41.03;;;14.32;;
82372;SDS011;72000;42.828;23.382;2024-02-21T05:23:19;29.38;;;10.00;;
82372;SDS011;72000;42.828;23.382;2024-02-21T05:25:45;13.23;;;5.13;;
82372;SDS011;72000;42.828;23.382;2024-02-21T05:28:10;12.48;;;4.78;;
82372;SDS011;72000;42.828;23.382;2024-02-21T05:30:36;9.98;;;4.03;;
82372;SDS011;72000;42.828;23.382;2024-02-21T05:33:05;8.77;;;3.50;;
82372;SDS011;72000;42.828;23.382;2024-02-21T05:35:31;10.18;;;3.63;;
82372;SDS011;72000;42.828;23.382;2024-02-21T05:37:57;9.65;;;3.88;;
82372;SDS011;72000;42.828;23.382;2024-02-21T05:40:22;9.80;;;3.67;;
82372;SDS011;72000;42.828;23.382;2024-02-21T05:42:48;14.50;;;5.45;;
82372;SDS011;72000;42.828;23.382;2024-02-21T05:45:13;16.52;;;6.35;;
82372;SDS011;72000;42.828;23.382;2024-02-21T05:47:41;20.38;;;7.43;;
82372;SDS011;72000;42.828;23.382;2024-02-21T05:50:07;19.85;;;6.93;;
82372;SDS011;72000;42.828;23.382;2024-02-21T05:52:32;21.48;;;7.45;;
82372;SDS011;72000;42.828;23.382;2024-02-21T05:54:58;19.48;;;7.88;;
82372;SDS011;72000;42.828;23.382;2024-02-21T05:57:23;15.75;;;6.35;;
82372;SDS011;72000;42.828;23.382;2024-02-21T05:59:49;14.93;;;5.68;;
82372;SDS011;72000;42.828;23.382;2024-02-21T06:02:14;15.77;;;5.40;;
82372;SDS011;72000;42.828;23.382;2024-02-21T06:04:40;10.32;;;4.43;;
82372;SDS011;72000;42.828;23.382;2024-02-21T06:07:07;9.65;;;3.92;;
82372;SDS011;72000;42.828;23.382;2024-02-21T06:09:33;9.13;;;3.80;;
82372;SDS011;72000;42.828;23.382;2024-02-21T06:11:59;8.65;;;3.78;;
82372;SDS011;72000;42.828;23.382;2024-02-21T06:14:24;8.77;;;3.55;;
82372;SDS011;72000;42.828;23.382;2024-02-21T06:16:50;8.95;;;3.92;;
82372;SDS011;72000;42.828;23.382;2024-02-21T06:19:15;9.18;;;3.88;;
82372;SDS011;72000;42.828;23.382;2024-02-21T06:21:41;9.75;;;4.30;;
82372;SDS011;72000;42.828;23.382;2024-02-21T06:24:06;9.73;;;4.25;;
82372;SDS011;72000;42.828;23.382;2024-02-21T06:26:32;9.82;;;4.47;;
82372;SDS011;72000;42.828;23.382;2024-02-21T06:28:58;10.52;;;4.53;;
82372;SDS011;72000;42.828;23.382;2024-02-21T06:31:25;11.25;;;4.88;;
82372;SDS011;72000;42.828;23.382;2024-02-21T06:33:50;11.45;;;4.75;;
82372;SDS011;72000;42.828;23.382;2024-02-21T06:36:16;11.45;;;5.10;;
82372;SDS011;72000;42.828;23.382;2024-02-21T06:38:41;9.43;;;4.50;;
82372;SDS011;72000;42.828;23.382;2024-02-21T06:41:14;10.15;;;4.50;;
82372;SDS011;72000;42.828;23.382;2024-02-21T06:43:40;9.43;;;4.03;;
82372;SDS011;72000;42.828;23.382;2024-02-21T06:46:06;9.95;;;4.20;;
82372;SDS011;72000;42.828;23.382;2024-02-21T06:48:31;9.13;;;4.40;;
82372;SDS011;72000;42.828;23.382;2024-02-21T06:50:57;11.13;;;4.47;;
82372;SDS011;72000;42.828;23.382;2024-02-21T06:53:22;11.93;;;4.50;;
82372;SDS011;72000;42.828;23.382;2024-02-21T06:55:48;13.00;;;5.45;;
82372;SDS011;72000;42.828;23.382;2024-02-21T06:58:13;12.57;;;5.05;;
82372;SDS011;72000;42.828;23.382;2024-02-21T07:00:41;13.13;;;5.03;;
82372;SDS011;72000;42.828;23.382;2024-02-21T07:03:07;10.77;;;4.95;;
82372;SDS011;72000;42.828;23.382;2024-02-21T07:05:33;10.82;;;5.00;;
82372;SDS011;72000;42.828;23.382;2024-02-21T07:07:58;12.80;;;5.20;;
82372;SDS011;72000;42.828;23.382;2024-02-21T07:10:24;10.57;;;4.65;;
82372;SDS011;72000;42.828;23.382;2024-02-21T07:12:49;10.55;;;4.40;;
82372;SDS011;72000;42.828;23.382;2024-02-21T07:15:17;10.50;;;4.50;;
82372;SDS011;72000;42.828;23.382;2024-02-21T07:17:42;10.55;;;4.90;;
82372;SDS011;72000;42.828;23.382;2024-02-21T07:20:08;9.75;;;4.50;;
82372;SDS011;72000;42.828;23.382;2024-02-21T07:22:34;10.30;;;4.47;;
82372;SDS011;72000;42.828;23.382;2024-02-21T07:24:59;10.35;;;4.65;;
82372;SDS011;72000;42.828;23.382;2024-02-21T07:27:24;13.70;;;5.30;;
82372;SDS011;72000;42.828;23.382;2024-02-21T07:29:53;10.70;;;4.88;;
82372;SDS011;72000;42.828;23.382;2024-02-21T07:32:19;10.60;;;4.65;;
82372;SDS011;72000;42.828;23.382;2024-02-21T07:34:44;10.10;;;4.43;;
82372;SDS011;72000;42.828;23.382;2024-02-21T07:37:10;13.10;;;5.65;;
82372;SDS011;72000;42.828;23.382;2024-02-21T07:39:36;13.60;;;5.80;;
82372;SDS011;72000;42.828;23.382;2024-02-21T07:42:05;13.77;;;6.05;;
82372;SDS011;72000;42.828;23.382;2024-02-21T07:44:31;13.80;;;6.18;;
82372;SDS011;72000;42.828;23.382;2024-02-21T07:46:57;13.65;;;6.20;;
82372;SDS011;72000;42.828;23.382;2024-02-21T07:49:23;14.13;;;5.80;;
82372;SDS011;72000;42.828;23.382;2024-02-21T07:54:15;15.55;;;5.80;;
82372;SDS011;72000;42.828;23.382;2024-02-21T07:56:40;12.77;;;5.53;;
82372;SDS011;72000;42.828;23.382;2024-02-21T07:59:06;12.07;;;5.13;;
82372;SDS011;72000;42.828;23.382;2024-02-21T08:01:33;12.40;;;5.25;;
82372;SDS011;72000;42.828;23.382;2024-02-21T08:03:58;12.43;;;5.40;;
82372;SDS011;72000;42.828;23.382;2024-02-21T08:06:24;11.80;;;6.00;;
82372;SDS011;72000;42.828;23.382;2024-02-21T08:08:51;15.65;;;6.35;;
82372;SDS011;72000;42.828;23.382;2024-02-21T08:13:42;12.75;;;5.40;;
82372;SDS011;72000;42.828;23.382;2024-02-21T08:16:07;12.80;;;5.47;;
82372;SDS011;72000;42.828;23.382;2024-02-21T08:18:33;13.48;;;5.70;;
82372;SDS011;72000;42.828;23.382;2024-02-21T08:21:02;12.55;;;5.88;;
82372;SDS011;72000;42.828;23.382;2024-02-21T08:23:28;13.18;;;5.65;;
82372;SDS011;72000;42.828;23.382;2024-02-21T08:25:54;12.32;;;5.78;;
82372;SDS011;72000;42.828;23.382;2024-02-21T08:28:19;11.90;;;5.97;;
82372;SDS011;72000;42.828;23.382;2024-02-21T08:30:45;12.90;;;5.90;;
82372;SDS011;72000;42.828;23.382;2024-02-21T08:33:14;13.45;;;5.78;;
82372;SDS011;72000;42.828;23.382;2024-02-21T08:35:40;13.30;;;6.13;;
82372;SDS011;72000;42.828;23.382;2024-02-21T08:38:06;10.90;;;5.40;;
82372;SDS011;72000;42.828;23.382;2024-02-21T08:40:31;12.40;;;5.93;;
82372;SDS011;72000;42.828;23.382;2024-02-21T08:43:00;13.27;;;5.93;;
82372;SDS011;72000;42.828;23.382;2024-02-21T08:45:26;12.82;;;6.05;;
82372;SDS011;72000;42.828;23.382;2024-02-21T08:47:51;14.23;;;5.90;;
82372;SDS011;72000;42.828;23.382;2024-02-21T08:50:16;12.50;;;5.80;;
82372;SDS011;72000;42.828;23.382;2024-02-21T08:52:42;16.23;;;6.80;;
82372;SDS011;72000;42.828;23.382;2024-02-21T08:55:08;14.98;;;6.45;;
82372;SDS011;72000;42.828;23.382;2024-02-21T08:57:33;14.77;;;7.07;;
82372;SDS011;72000;42.828;23.382;2024-02-21T09:00:04;14.45;;;6.65;;
82372;SDS011;72000;42.828;23.382;2024-02-21T09:02:52;15.20;;;6.93;;
82372;SDS011;72000;42.828;23.382;2024-02-21T09:05:17;15.95;;;6.78;;
82372;SDS011;72000;42.828;23.382;2024-02-21T09:07:43;15.40;;;7.25;;
82372;SDS011;72000;42.828;23.382;2024-02-21T09:10:09;15.70;;;6.97;;
82372;SDS011;72000;42.828;23.382;2024-02-21T09:12:34;16.65;;;7.45;;
82372;SDS011;72000;42.828;23.382;2024-02-21T09:15:00;16.77;;;7.43;;
82372;SDS011;72000;42.828;23.382;2024-02-21T09:17:25;15.75;;;7.47;;
82372;SDS011;72000;42.828;23.382;2024-02-21T09:19:54;15.15;;;7.28;;
82372;SDS011;72000;42.828;23.382;2024-02-21T09:22:21;14.73;;;7.07;;
82372;SDS011;72000;42.828;23.382;2024-02-21T09:24:46;16.45;;;7.55;;
82372;SDS011;72000;42.828;23.382;2024-02-21T09:27:12;14.50;;;6.80;;
82372;SDS011;72000;42.828;23.382;2024-02-21T09:29:38;15.57;;;6.97;;
82372;SDS011;72000;42.828;23.382;2024-02-21T09:32:04;13.48;;;6.47;;
82372;SDS011;72000;42.828;23.382;2024-02-21T09:34:30;14.45;;;6.53;;
82372;SDS011;72000;42.828;23.382;2024-02-21T09:36:56;15.02;;;6.63;;
82372;SDS011;72000;42.828;23.382;2024-02-21T09:39:21;14.05;;;6.35;;
82372;SDS011;72000;42.828;23.382;2024-02-21T09:41:50;11.93;;;5.55;;
82372;SDS011;72000;42.828;23.382;2024-02-21T09:44:20;11.20;;;5.10;;
82372;SDS011;72000;42.828;23.382;2024-02-21T09:46:57;10.95;;;5.22;;
82372;SDS011;72000;42.828;23.382;2024-02-21T09:49:32;11.18;;;5.45;;
82372;SDS011;72000;42.828;23.382;2024-02-21T09:52:02;12.45;;;5.63;;
82372;SDS011;72000;42.828;23.382;2024-02-21T09:54:30;13.88;;;6.03;;
82372;SDS011;72000;42.828;23.382;2024-02-21T09:57:02;11.05;;;5.18;;
82372;SDS011;72000;42.828;23.382;2024-02-21T09:59:28;12.48;;;5.43;;
82372;SDS011;72000;42.828;23.382;2024-02-21T10:01:56;8.80;;;4.55;;
82372;SDS011;72000;42.828;23.382;2024-02-21T10:04:22;12.77;;;5.63;;
82372;SDS011;72000;42.828;23.382;2024-02-21T10:06:49;11.13;;;5.40;;
82372;SDS011;72000;42.828;23.382;2024-02-21T10:09:27;10.85;;;5.35;;
82372;SDS011;72000;42.828;23.382;2024-02-21T10:11:53;10.68;;;5.38;;
82372;SDS011;72000;42.828;23.382;2024-02-21T10:14:19;11.73;;;5.40;;
82372;SDS011;72000;42.828;23.382;2024-02-21T10:16:48;13.00;;;5.70;;
82372;SDS011;72000;42.828;23.382;2024-02-21T10:19:22;12.15;;;6.00;;
82372;SDS011;72000;42.828;23.382;2024-02-21T10:22:03;12.32;;;5.90;;
82372;SDS011;72000;42.828;23.382;2024-02-21T10:24:33;12.68;;;6.10;;
82372;SDS011;72000;42.828;23.382;2024-02-21T10:27:05;12.00;;;5.80;;
82372;SDS011;72000;42.828;23.382;2024-02-21T10:29:39;11.80;;;5.60;;
82372;SDS011;72000;42.828;23.382;2024-02-21T10:32:08;11.68;;;5.85;;
82372;SDS011;72000;42.828;23.382;2024-02-21T10:34:38;13.18;;;5.50;;
82372;SDS011;72000;42.828;23.382;2024-02-21T10:37:05;11.73;;;5.43;;
82372;SDS011;72000;42.828;23.382;2024-02-21T10:39:32;11.55;;;5.38;;
82372;SDS011;72000;42.828;23.382;2024-02-21T10:42:02;10.13;;;4.88;;
82372;SDS011;72000;42.828;23.382;2024-02-21T10:47:03;9.77;;;4.70;;
82372;SDS011;72000;42.828;23.382;2024-02-21T10:49:33;9.75;;;4.65;;
82372;SDS011;72000;42.828;23.382;2024-02-21T10:54:46;13.05;;;5.53;;
82372;SDS011;72000;42.828;23.382;2024-02-21T10:57:15;11.10;;;5.47;;
82372;SDS011;72000;42.828;23.382;2024-02-21T10:59:41;10.93;;;5.45;;
82372;SDS011;72000;42.828;23.382;2024-02-21T11:02:09;11.52;;;5.60;;
82372;SDS011;72000;42.828;23.382;2024-02-21T11:04:35;11.40;;;5.43;;
82372;SDS011;72000;42.828;23.382;2024-02-21T11:07:02;11.57;;;5.53;;
82372;SDS011;72000;42.828;23.382;2024-02-21T11:09:29;10.95;;;5.25;;
82372;SDS011;72000;42.828;23.382;2024-02-21T11:11:58;10.57;;;5.10;;
82372;SDS011;72000;42.828;23.382;2024-02-21T11:14:25;11.27;;;5.65;;
82372;SDS011;72000;42.828;23.382;2024-02-21T11:16:52;8.85;;;5.05;;
82372;SDS011;72000;42.828;23.382;2024-02-21T11:19:21;12.00;;;5.47;;
82372;SDS011;72000;42.828;23.382;2024-02-21T11:21:47;10.60;;;4.97;;
82372;SDS011;72000;42.828;23.382;2024-02-21T11:24:13;9.50;;;4.53;;
82372;SDS011;72000;42.828;23.382;2024-02-21T11:26:39;9.20;;;4.40;;
82372;SDS011;72000;42.828;23.382;2024-02-21T11:29:08;9.57;;;4.65;;
82372;SDS011;72000;42.828;23.382;2024-02-21T11:31:39;9.73;;;4.22;;
82372;SDS011;72000;42.828;23.382;2024-02-21T11:34:08;8.40;;;4.18;;
82372;SDS011;72000;42.828;23.382;2024-02-21T11:36:34;7.78;;;4.00;;
82372;SDS011;72000;42.828;23.382;2024-02-21T11:39:03;9.45;;;3.92;;
82372;SDS011;72000;42.828;23.382;2024-02-21T11:41:29;8.32;;;3.90;;
82372;SDS011;72000;42.828;23.382;2024-02-21T11:43:55;7.10;;;3.50;;
82372;SDS011;72000;42.828;23.382;2024-02-21T11:46:21;7.22;;;3.65;;
82372;SDS011;72000;42.828;23.382;2024-02-21T11:48:46;7.30;;;3.80;;
82372;SDS011;72000;42.828;23.382;2024-02-21T11:51:24;6.85;;;3.33;;
82372;SDS011;72000;42.828;23.382;2024-02-21T11:53:53;7.13;;;3.45;;
82372;SDS011;72000;42.828;23.382;2024-02-21T11:56:19;6.75;;;3.30;;
82372;SDS011;72000;42.828;23.382;2024-02-21T11:58:48;7.80;;;3.33;;
82372;SDS011;72000;42.828;23.382;2024-02-21T12:01:14;7.30;;;3.58;;
82372;SDS011;72000;42.828;23.382;2024-02-21T12:03:40;7.30;;;3.25;;
82372;SDS011;72000;42.828;23.382;2024-02-21T12:06:06;7.70;;;3.42;;
82372;SDS011;72000;42.828;23.382;2024-02-21T12:08:42;7.05;;;3.30;;
82372;SDS011;72000;42.828;23.382;2024-02-21T12:11:23;8.98;;;3.00;;
82372;SDS011;72000;42.828;23.382;2024-02-21T12:14:01;6.25;;;3.03;;
82372;SDS011;72000;42.828;23.382;2024-02-21T12:16:29;7.30;;;3.13;;
82372;SDS011;72000;42.828;23.382;2024-02-21T12:18:55;6.88;;;3.47;;
82372;SDS011;72000;42.828;23.382;2024-02-21T12:21:29;8.23;;;3.40;;
82372;SDS011;72000;42.828;23.382;2024-02-21T12:23:57;7.43;;;3.30;;
82372;SDS011;72000;42.828;23.382;2024-02-21T12:26:23;13.13;;;4.85;;
82372;SDS011;72000;42.828;23.382;2024-02-21T12:28:48;9.73;;;4.28;;
82372;SDS011;72000;42.828;23.382;2024-02-21T12:31:14;8.07;;;3.83;;
82372;SDS011;72000;42.828;23.382;2024-02-21T12:33:41;8.75;;;4.00;;
82372;SDS011;72000;42.828;23.382;2024-02-21T12:36:07;8.32;;;4.07;;
82372;SDS011;72000;42.828;23.382;2024-02-21T12:38:34;8.20;;;3.70;;
82372;SDS011;72000;42.828;23.382;2024-02-21T12:41:00;7.53;;;3.83;;
82372;SDS011;72000;42.828;23.382;2024-02-21T12:43:26;7.60;;;3.80;;
82372;SDS011;72000;42.828;23.382;2024-02-21T12:45:52;7.93;;;3.88;;
82372;SDS011;72000;42.828;23.382;2024-02-21T12:48:18;8.75;;;3.55;;
82372;SDS011;72000;42.828;23.382;2024-02-21T12:50:50;7.78;;;3.60;;
82372;SDS011;72000;42.828;23.382;2024-02-21T12:53:17;8.80;;;3.63;;
82372;SDS011;72000;42.828;23.382;2024-02-21T12:55:44;8.65;;;3.58;;
82372;SDS011;72000;42.828;23.382;2024-02-21T12:58:11;9.10;;;3.90;;
82372;SDS011;72000;42.828;23.382;2024-02-21T13:00:36;10.57;;;4.63;;
82372;SDS011;72000;42.828;23.382;2024-02-21T13:03:03;10.00;;;4.43;;
82372;SDS011;72000;42.828;23.382;2024-02-21T13:05:28;8.65;;;3.92;;
82372;SDS011;72000;42.828;23.382;2024-02-21T13:07:54;8.50;;;3.70;;
82372;SDS011;72000;42.828;23.382;2024-02-21T13:10:19;7.55;;;3.30;;
82372;SDS011;72000;42.828;23.382;2024-02-21T13:12:46;7.07;;;3.55;;
82372;SDS011;72000;42.828;23.382;2024-02-21T13:15:12;7.32;;;3.78;;
82372;SDS011;72000;42.828;23.382;2024-02-21T13:17:37;7.78;;;3.67;;
82372;SDS011;72000;42.828;23.382;2024-02-21T13:20:03;8.40;;;3.85;;
82372;SDS011;72000;42.828;23.382;2024-02-21T13:22:29;8.57;;;3.63;;
82372;SDS011;72000;42.828;23.382;2024-02-21T13:24:54;10.65;;;4.13;;
82372;SDS011;72000;42.828;23.382;2024-02-21T13:27:20;9.75;;;3.90;;
82372;SDS011;72000;42.828;23.382;2024-02-21T13:29:46;13.40;;;4.65;;
82372;SDS011;72000;42.828;23.382;2024-02-21T13:32:11;13.73;;;4.47;;
82372;SDS011;72000;42.828;23.382;2024-02-21T13:34:37;10.15;;;3.90;;
82372;SDS011;72000;42.828;23.382;2024-02-21T13:37:02;6.75;;;3.00;;
82372;SDS011;72000;42.828;23.382;2024-02-21T13:39:29;6.60;;;3.30;;
82372;SDS011;72000;42.828;23.382;2024-02-21T13:41:55;6.85;;;2.90;;
82372;SDS011;72000;42.828;23.382;2024-02-21T13:44:20;7.15;;;3.40;;
82372;SDS011;72000;42.828;23.382;2024-02-21T13:46:46;7.45;;;3.80;;
82372;SDS011;72000;42.828;23.382;2024-02-21T13:49:12;7.28;;;3.40;;
82372;SDS011;72000;42.828;23.382;2024-02-21T13:51:37;7.93;;;4.05;;
82372;SDS011;72000;42.828;23.382;2024-02-21T13:54:03;7.32;;;3.67;;
82372;SDS011;72000;42.828;23.382;2024-02-21T13:56:30;8.57;;;3.72;;
82372;SDS011;72000;42.828;23.382;2024-02-21T13:58:57;8.50;;;3.92;;
82372;SDS011;72000;42.828;23.382;2024-02-21T14:01:23;8.75;;;3.88;;
82372;SDS011;72000;42.828;23.382;2024-02-21T14:03:49;9.20;;;4.03;;
82372;SDS011;72000;42.828;23.382;2024-02-21T14:06:14;9.48;;;4.18;;
82372;SDS011;72000;42.828;23.382;2024-02-21T14:08:40;7.80;;;3.72;;
82372;SDS011;72000;42.828;23.382;2024-02-21T14:11:06;10.30;;;3.80;;
82372;SDS011;72000;42.828;23.382;2024-02-21T14:13:32;9.15;;;4.55;;
82372;SDS011;72000;42.828;23.382;2024-02-21T14:15:57;10.10;;;4.50;;
82372;SDS011;72000;42.828;23.382;2024-02-21T14:18:23;10.10;;;4.60;;
82372;SDS011;72000;42.828;23.382;2024-02-21T14:20:48;11.70;;;5.60;;
82372;SDS011;72000;42.828;23.382;2024-02-21T14:23:14;12.30;;;5.68;;
82372;SDS011;72000;42.828;23.382;2024-02-21T14:25:39;10.15;;;4.20;;
82372;SDS011;72000;42.828;23.382;2024-02-21T14:28:07;12.93;;;5.78;;
82372;SDS011;72000;42.828;23.382;2024-02-21T14:30:34;13.45;;;6.13;;
82372;SDS011;72000;42.828;23.382;2024-02-21T14:33:00;11.88;;;6.00;;
82372;SDS011;72000;42.828;23.382;2024-02-21T14:35:26;9.27;;;4.50;;
82372;SDS011;72000;42.828;23.382;2024-02-21T14:37:51;8.63;;;4.43;;
82372;SDS011;72000;42.828;23.382;2024-02-21T14:40:18;11.23;;;5.05;;